createdAt,value
2022-10-16T00:01:40.224Z,16.30
2022-10-16T00:04:07.336Z,12.77
2022-10-16T00:06:34.400Z,17.57
2022-10-16T00:09:01.787Z,16.90
2022-10-16T00:11:34.475Z,15.70
2022-10-16T00:14:04.739Z,12.83
2022-10-16T00:16:32.506Z,17.33
2022-10-16T00:19:02.095Z,14.20
2022-10-16T00:21:31.251Z,12.87
2022-10-16T00:24:02.573Z,20.07
2022-10-16T00:26:33.192Z,14.33
2022-10-16T00:29:00.464Z,13.70
2022-10-16T00:31:28.708Z,16.30
2022-10-16T00:33:55.950Z,11.50
2022-10-16T00:36:26.143Z,13.60
2022-10-16T00:38:55.852Z,13.30
2022-10-16T00:41:25.271Z,16.93
2022-10-16T00:43:55.052Z,12.20
2022-10-16T00:46:40.683Z,12.53
2022-10-16T00:49:14.569Z,10.00
2022-10-16T00:51:46.387Z,9.70
2022-10-16T00:54:21.750Z,12.03
2022-10-16T00:56:49.303Z,10.97
2022-10-16T00:59:31.440Z,9.97
2022-10-16T01:01:59.753Z,14.80
2022-10-16T01:04:27.429Z,8.57
2022-10-16T01:07:12.399Z,12.00
2022-10-16T01:10:04.384Z,14.10
2022-10-16T01:13:06.604Z,10.43
2022-10-16T01:15:45.597Z,11.40
2022-10-16T01:18:40.759Z,10.83
2022-10-16T01:21:27.363Z,10.43
2022-10-16T01:24:13.186Z,11.27
2022-10-16T01:27:17.575Z,9.30
2022-10-16T01:29:57.709Z,7.80
2022-10-16T01:32:34.923Z,11.40
2022-10-16T01:35:24.922Z,8.90
2022-10-16T01:38:16.111Z,7.70
2022-10-16T01:40:51.540Z,8.50
2022-10-16T01:43:51.074Z,7.40
2022-10-16T01:46:22.050Z,8.83
2022-10-16T01:48:50.959Z,7.53
2022-10-16T01:51:21.503Z,6.63
2022-10-16T01:53:54.449Z,7.20
2022-10-16T01:56:23.644Z,8.60
2022-10-16T01:59:15.138Z,8.77
2022-10-16T02:01:46.948Z,7.80
2022-10-16T02:04:30.410Z,8.60
2022-10-16T02:06:58.209Z,9.83
2022-10-16T02:09:25.568Z,11.93
2022-10-16T02:11:56.076Z,7.70
2022-10-16T02:14:25.653Z,10.90
2022-10-16T02:16:52.839Z,10.80
2022-10-16T02:19:21.409Z,8.97
2022-10-16T02:21:53.233Z,9.50
2022-10-16T02:24:32.787Z,12.70
2022-10-16T02:27:27.207Z,9.13
2022-10-16T02:30:08.710Z,10.53
2022-10-16T02:32:40.770Z,6.30
2022-10-16T02:35:09.443Z,7.93
2022-10-16T02:37:38.109Z,8.87
2022-10-16T02:40:06.937Z,6.63
2022-10-16T02:42:40.713Z,7.90
2022-10-16T02:45:10.758Z,9.93
2022-10-16T02:47:38.405Z,9.50
2022-10-16T02:50:06.034Z,9.77
2022-10-16T02:52:33.166Z,7.03
2022-10-16T02:55:00.200Z,6.67
2022-10-16T02:57:28.189Z,8.40
2022-10-16T02:59:55.627Z,7.40
2022-10-16T03:02:22.654Z,7.80
2022-10-16T03:04:49.648Z,6.57
2022-10-16T03:07:16.943Z,10.27
2022-10-16T03:09:43.986Z,10.47
2022-10-16T03:12:12.966Z,8.10
2022-10-16T03:14:40.923Z,9.70
2022-10-16T03:17:08.504Z,10.23
2022-10-16T03:19:36.817Z,9.37
2022-10-16T03:22:03.866Z,7.13
2022-10-16T03:24:30.990Z,7.17
2022-10-16T03:26:58.555Z,9.60
2022-10-16T03:29:26.765Z,8.30
2022-10-16T03:31:53.865Z,12.20
2022-10-16T03:34:20.927Z,7.97
2022-10-16T03:36:47.942Z,5.97
2022-10-16T03:39:15.024Z,7.67
2022-10-16T03:41:42.103Z,5.33
2022-10-16T03:44:09.141Z,5.83
2022-10-16T03:46:36.141Z,6.87
2022-10-16T03:49:06.066Z,6.10
2022-10-16T03:51:35.953Z,9.73
2022-10-16T03:54:03.064Z,4.63
2022-10-16T03:56:30.163Z,4.00
2022-10-16T03:58:57.206Z,4.30
2022-10-16T04:01:24.561Z,5.93
2022-10-16T04:03:51.629Z,4.60
2022-10-16T04:06:18.743Z,4.00
2022-10-16T04:08:46.129Z,9.57
2022-10-16T04:11:13.311Z,4.40
2022-10-16T04:13:40.465Z,4.70
2022-10-16T04:16:07.571Z,8.30
2022-10-16T04:18:34.601Z,4.73
2022-10-16T04:21:06.989Z,5.37
2022-10-16T04:23:34.549Z,6.07
2022-10-16T04:26:02.054Z,4.83
2022-10-16T04:28:29.645Z,5.80
2022-10-16T04:30:56.738Z,5.03
2022-10-16T04:33:23.858Z,7.00
2022-10-16T04:36:01.665Z,7.17
2022-10-16T04:38:29.431Z,9.30
2022-10-16T04:40:56.520Z,7.30
2022-10-16T04:43:24.386Z,8.07
2022-10-16T04:45:55.698Z,6.90
2022-10-16T04:48:23.169Z,7.47
2022-10-16T04:50:53.077Z,7.23
2022-10-16T04:53:22.643Z,7.77
2022-10-16T04:55:49.762Z,7.93
2022-10-16T04:58:16.816Z,7.13
2022-10-16T05:00:45.341Z,7.33
2022-10-16T05:03:12.661Z,13.50
2022-10-16T05:05:45.608Z,5.97
2022-10-16T05:08:17.263Z,7.40
2022-10-16T05:10:45.884Z,8.07
2022-10-16T05:13:13.514Z,7.50
2022-10-16T05:15:41.050Z,5.63
2022-10-16T05:18:08.089Z,7.20
2022-10-16T05:20:35.958Z,6.57
2022-10-16T05:23:03.065Z,5.67
2022-10-16T05:25:30.156Z,5.35
2022-10-16T05:27:57.217Z,5.00
2022-10-16T05:30:24.449Z,5.50
2022-10-16T05:32:52.542Z,7.27
2022-10-16T05:35:20.867Z,5.90
2022-10-16T05:37:48.644Z,6.30
2022-10-16T05:40:17.753Z,4.70
2022-10-16T05:42:44.849Z,6.50
2022-10-16T05:45:13.304Z,5.30
2022-10-16T05:47:40.877Z,4.53
2022-10-16T05:50:08.453Z,5.87
2022-10-16T05:52:35.503Z,5.37
2022-10-16T05:55:02.848Z,4.57
2022-10-16T05:57:29.987Z,4.57
2022-10-16T05:59:57.210Z,6.77
2022-10-16T06:02:24.274Z,11.33
2022-10-16T06:04:54.856Z,13.50
2022-10-16T06:07:23.625Z,6.97
2022-10-16T06:09:52.376Z,8.73
2022-10-16T06:12:20.667Z,7.40
2022-10-16T06:14:48.155Z,6.80
2022-10-16T06:17:16.362Z,4.20
2022-10-16T06:19:43.481Z,7.67
2022-10-16T06:22:10.839Z,5.90
2022-10-16T06:24:37.890Z,5.57
2022-10-16T06:27:05.965Z,6.30
2022-10-16T06:29:32.987Z,17.23
2022-10-16T06:32:00.801Z,8.00
2022-10-16T06:34:27.855Z,9.63
2022-10-16T06:36:55.068Z,6.03
2022-10-16T06:39:22.100Z,10.43
2022-10-16T06:41:49.989Z,5.67
2022-10-16T06:44:17.132Z,11.80
2022-10-16T06:46:44.178Z,5.97
2022-10-16T06:49:11.244Z,8.47
2022-10-16T06:51:43.221Z,5.33
2022-10-16T06:54:10.898Z,9.57
2022-10-16T06:56:38.726Z,7.43
2022-10-16T06:59:05.988Z,8.83
2022-10-16T07:01:33.986Z,5.90
2022-10-16T07:04:03.063Z,8.03
2022-10-16T07:06:34.329Z,5.60
2022-10-16T07:09:07.163Z,11.13
2022-10-16T07:11:34.961Z,5.90
2022-10-16T07:14:02.060Z,8.10
2022-10-16T07:16:32.400Z,13.80
2022-10-16T07:19:02.111Z,18.73
2022-10-16T07:21:37.783Z,10.67
2022-10-16T07:24:08.508Z,6.20
2022-10-16T07:26:39.993Z,6.30
2022-10-16T07:29:17.245Z,7.00
2022-10-16T07:31:46.213Z,20.97
2022-10-16T07:34:15.193Z,7.40
2022-10-16T07:39:14.289Z,6.97
2022-10-16T07:41:41.342Z,15.97
2022-10-16T07:44:08.980Z,12.37
2022-10-16T07:46:37.036Z,11.83
2022-10-16T07:49:04.744Z,12.50
2022-10-16T07:51:32.318Z,14.63
2022-10-16T07:53:59.584Z,11.57
2022-10-16T07:56:26.795Z,6.77
2022-10-16T07:58:54.272Z,8.00
2022-10-16T08:01:21.660Z,13.00
2022-10-16T08:03:51.632Z,11.70
2022-10-16T08:06:25.046Z,19.03
2022-10-16T08:08:56.086Z,18.60
2022-10-16T08:11:23.907Z,6.67
2022-10-16T08:13:51.058Z,6.37
2022-10-16T08:16:18.722Z,7.53
2022-10-16T08:18:45.912Z,10.70
2022-10-16T08:21:21.304Z,10.73
2022-10-16T08:23:54.513Z,9.77
2022-10-16T08:26:24.623Z,11.43
2022-10-16T08:28:53.108Z,9.10
2022-10-16T08:31:21.153Z,8.80
2022-10-16T08:33:48.929Z,6.00
2022-10-16T08:36:25.539Z,6.60
2022-10-16T08:38:56.621Z,8.60
2022-10-16T08:41:58.650Z,8.13
2022-10-16T08:45:06.008Z,6.97
2022-10-16T08:47:51.556Z,10.97
2022-10-16T08:50:31.188Z,8.60
2022-10-16T08:52:59.368Z,10.40
2022-10-16T08:55:43.963Z,9.03
2022-10-16T08:58:23.882Z,8.20
2022-10-16T09:00:58.877Z,8.60
2022-10-16T09:03:37.880Z,9.47
2022-10-16T09:06:59.940Z,8.03
2022-10-16T09:10:05.382Z,6.97
2022-10-16T09:12:43.590Z,8.40
2022-10-16T09:15:32.726Z,9.43
2022-10-16T09:18:06.362Z,7.10
2022-10-16T09:21:13.562Z,7.07
2022-10-16T09:23:40.624Z,6.63
2022-10-16T09:26:13.337Z,6.53
2022-10-16T09:28:41.302Z,5.57
2022-10-16T09:31:22.748Z,5.90
2022-10-16T09:33:59.730Z,1.07
2022-10-16T09:36:29.247Z,0.80
2022-10-16T09:39:09.038Z,0.67
2022-10-16T09:41:39.788Z,1.43
2022-10-16T09:44:25.143Z,2.10
2022-10-16T09:47:12.275Z,6.07
2022-10-16T09:49:39.337Z,2.20
2022-10-16T09:52:14.359Z,1.70
2022-10-16T09:54:59.249Z,0.70
2022-10-16T09:57:27.811Z,0.60
2022-10-16T09:59:57.609Z,4.93
2022-10-16T10:02:39.137Z,1.17
2022-10-16T10:05:20.394Z,0.90
2022-10-16T10:07:47.584Z,0.70
2022-10-16T10:10:30.561Z,0.60
2022-10-16T10:12:58.308Z,0.80
2022-10-16T10:15:27.792Z,1.83
2022-10-16T10:17:58.230Z,1.30
2022-10-16T10:20:27.531Z,1.27
2022-10-16T10:22:56.718Z,1.20
2022-10-16T10:26:06.105Z,1.93
2022-10-16T10:29:00.979Z,0.70
2022-10-16T10:31:40.862Z,4.53
2022-10-16T10:34:25.867Z,0.83
2022-10-16T10:37:18.655Z,1.10
2022-10-16T10:40:00.477Z,1.00
2022-10-16T10:43:04.239Z,3.33
2022-10-16T10:45:48.833Z,0.67
2022-10-16T10:48:43.333Z,0.80
2022-10-16T10:51:57.938Z,0.80
2022-10-16T10:54:37.175Z,0.80
2022-10-16T10:57:19.761Z,0.70
2022-10-16T11:00:09.069Z,0.90
2022-10-16T11:03:04.865Z,4.40
2022-10-16T11:05:53.836Z,0.70
2022-10-16T11:08:39.516Z,0.50
2022-10-16T11:11:25.578Z,0.70
2022-10-16T11:14:27.912Z,0.90
2022-10-16T11:17:17.586Z,0.60
2022-10-16T11:19:58.257Z,0.70
2022-10-16T11:23:00.632Z,1.17
2022-10-16T11:25:31.074Z,0.60
2022-10-16T11:28:09.913Z,0.60
2022-10-16T11:30:56.951Z,2.30
2022-10-16T11:33:47.256Z,0.90
2022-10-16T11:36:51.352Z,0.90
2022-10-16T11:39:26.294Z,0.80
2022-10-16T11:42:09.989Z,1.13
2022-10-16T11:44:59.039Z,4.80
2022-10-16T11:47:57.453Z,1.30
2022-10-16T11:50:32.506Z,0.87
2022-10-16T11:53:44.105Z,2.20
2022-10-16T11:56:17.326Z,1.73
2022-10-16T11:59:09.117Z,0.70
2022-10-16T12:02:07.622Z,1.20
2022-10-16T12:04:46.632Z,0.70
2022-10-16T12:07:22.278Z,3.27
2022-10-16T12:09:49.400Z,3.60
2022-10-16T12:12:40.128Z,0.70
2022-10-16T12:15:35.148Z,0.80
2022-10-16T12:17:55.165Z,1.23
2022-10-16T12:20:27.838Z,1.57
2022-10-16T12:23:00.521Z,1.53
2022-10-16T12:25:38.691Z,0.70
2022-10-16T12:28:19.843Z,8.83
2022-10-16T12:31:03.777Z,2.60
2022-10-16T12:33:34.608Z,0.73
2022-10-16T12:36:06.703Z,0.70
2022-10-16T12:38:47.880Z,0.80
2022-10-16T12:41:27.454Z,2.40
2022-10-16T12:43:55.204Z,3.77
2022-10-16T12:46:41.469Z,1.67
2022-10-16T12:49:14.544Z,2.20
2022-10-16T12:51:43.792Z,1.97
2022-10-16T12:54:31.273Z,0.60
2022-10-16T12:57:28.537Z,6.00
2022-10-16T13:00:22.846Z,0.80
2022-10-16T13:03:12.621Z,0.70
2022-10-16T13:06:11.912Z,0.70
2022-10-16T13:08:47.521Z,0.77
2022-10-16T13:12:11.367Z,0.97
2022-10-16T13:14:59.979Z,0.77
2022-10-16T13:17:46.913Z,1.27
2022-10-16T13:20:25.262Z,0.90
2022-10-16T13:23:39.271Z,0.60
2022-10-16T13:26:32.833Z,1.37
2022-10-16T13:29:02.416Z,3.73
2022-10-16T13:31:31.097Z,0.97
2022-10-16T13:34:00.942Z,2.43
2022-10-16T13:36:43.492Z,2.30
2022-10-16T13:39:29.925Z,2.50
2022-10-16T13:42:15.386Z,1.83
2022-10-16T13:44:47.041Z,3.70
2022-10-16T13:47:21.511Z,1.57
2022-10-16T13:50:04.031Z,2.33
2022-10-16T13:52:32.187Z,1.33
2022-10-16T13:55:01.957Z,1.10
2022-10-16T13:57:29.898Z,1.40
2022-10-16T13:59:56.969Z,1.47
2022-10-16T14:02:39.280Z,3.97
2022-10-16T14:05:11.668Z,2.87
2022-10-16T14:07:39.397Z,1.73
2022-10-16T14:10:31.156Z,3.27
2022-10-16T14:13:05.625Z,2.27
2022-10-16T14:15:35.742Z,1.87
2022-10-16T14:18:03.855Z,1.40
2022-10-16T14:20:34.617Z,1.43
2022-10-16T14:23:20.356Z,2.03
2022-10-16T14:25:48.209Z,1.30
2022-10-16T14:28:23.988Z,1.93
2022-10-16T14:31:01.771Z,1.50
2022-10-16T14:33:31.525Z,1.10
2022-10-16T14:36:10.441Z,2.07
2022-10-16T14:38:41.065Z,1.83
2022-10-16T14:41:08.641Z,0.97
2022-10-16T14:43:41.686Z,1.27
2022-10-16T14:46:15.978Z,3.53
2022-10-16T14:48:45.108Z,1.70
2022-10-16T14:51:20.044Z,1.13
2022-10-16T14:53:48.051Z,2.27
2022-10-16T14:56:22.628Z,2.00
2022-10-16T14:58:52.138Z,5.83
2022-10-16T15:01:19.681Z,1.63
2022-10-16T15:03:47.230Z,1.30
2022-10-16T15:06:16.904Z,0.90
2022-10-16T15:08:44.378Z,1.40
2022-10-16T15:11:20.168Z,4.33
2022-10-16T15:13:47.847Z,1.10
2022-10-16T15:16:17.503Z,2.17
2022-10-16T15:18:45.031Z,1.43
2022-10-16T15:21:29.655Z,0.83
2022-10-16T15:23:58.543Z,2.03
2022-10-16T15:26:30.252Z,1.60
2022-10-16T15:28:57.604Z,1.70
2022-10-16T15:31:25.440Z,2.17
2022-10-16T15:33:57.110Z,3.23
2022-10-16T15:36:37.698Z,1.87
2022-10-16T15:39:13.986Z,1.10
2022-10-16T15:41:42.469Z,1.00
2022-10-16T15:44:10.007Z,1.23
2022-10-16T15:46:38.235Z,2.50
2022-10-16T15:49:05.497Z,2.70
2022-10-16T15:51:34.195Z,1.93
2022-10-16T15:54:02.932Z,3.93
2022-10-16T15:56:31.573Z,3.90
2022-10-16T15:58:59.357Z,2.97
2022-10-16T16:01:27.332Z,4.13
2022-10-16T16:03:55.240Z,1.83
2022-10-16T16:06:26.420Z,3.80
2022-10-16T16:08:53.667Z,8.30
2022-10-16T16:11:21.571Z,2.63
2022-10-16T16:13:48.577Z,5.40
2022-10-16T16:16:17.791Z,2.90
2022-10-16T16:18:44.987Z,8.23
2022-10-16T16:21:13.682Z,4.30
2022-10-16T16:23:40.806Z,6.70
2022-10-16T16:26:15.304Z,7.50
2022-10-16T16:28:44.412Z,16.90
2022-10-16T16:31:11.624Z,9.27
2022-10-16T16:33:39.030Z,8.00
2022-10-16T16:36:11.509Z,4.73
2022-10-16T16:38:41.696Z,4.53
2022-10-16T16:41:24.057Z,8.30
2022-10-16T16:43:53.920Z,5.90
2022-10-16T16:46:22.008Z,6.30
2022-10-16T16:48:51.354Z,9.00
2022-10-16T16:51:20.774Z,13.43
2022-10-16T16:53:51.586Z,8.07
2022-10-16T16:56:21.347Z,12.90
2022-10-16T16:58:50.558Z,11.80
2022-10-16T17:01:20.816Z,7.20
2022-10-16T17:03:51.383Z,11.90
2022-10-16T17:06:21.385Z,7.20
2022-10-16T17:08:50.297Z,7.47
2022-10-16T17:11:26.069Z,5.73
2022-10-16T17:13:56.813Z,6.60
2022-10-16T17:16:37.303Z,6.50
2022-10-16T17:19:08.174Z,10.37
2022-10-16T17:21:36.186Z,15.07
2022-10-16T17:24:03.943Z,4.10
2022-10-16T17:26:31.650Z,13.70
2022-10-16T17:29:02.036Z,6.70
2022-10-16T17:31:35.264Z,11.90
2022-10-16T17:34:06.189Z,7.37
2022-10-16T17:36:36.767Z,10.27
2022-10-16T17:39:09.016Z,16.23
2022-10-16T17:41:36.989Z,20.80
2022-10-16T17:44:05.239Z,24.03
2022-10-16T17:46:36.883Z,15.30
2022-10-16T17:49:07.340Z,7.50
2022-10-16T17:51:34.785Z,4.60
2022-10-16T17:54:02.678Z,2.70
2022-10-16T17:56:30.852Z,4.00
2022-10-16T17:59:00.931Z,5.90
2022-10-16T18:01:35.098Z,5.97
2022-10-16T18:04:09.693Z,3.40
2022-10-16T18:06:39.413Z,3.17
2022-10-16T18:09:08.320Z,5.27
2022-10-16T18:11:35.765Z,4.97
2022-10-16T18:14:04.734Z,5.13
2022-10-16T18:16:32.557Z,9.17
2022-10-16T18:19:00.500Z,5.23
2022-10-16T18:21:28.745Z,5.50
2022-10-16T18:24:00.046Z,4.00
2022-10-16T18:26:27.916Z,8.67
2022-10-16T18:28:57.862Z,21.53
2022-10-16T18:31:28.691Z,4.47
2022-10-16T18:33:56.788Z,4.37
2022-10-16T18:36:33.494Z,4.63
2022-10-16T18:39:09.279Z,4.77
2022-10-16T18:41:42.458Z,4.27
2022-10-16T18:44:10.777Z,3.43
2022-10-16T18:46:38.298Z,7.67
2022-10-16T18:49:05.709Z,3.50
2022-10-16T18:51:40.377Z,5.73
2022-10-16T18:54:10.559Z,25.07
2022-10-16T18:56:39.117Z,10.97
2022-10-16T18:59:08.193Z,7.90
2022-10-16T19:01:38.766Z,14.83
2022-10-16T19:04:13.568Z,7.67
2022-10-16T19:06:47.097Z,28.07
2022-10-16T19:09:16.874Z,15.77
2022-10-16T19:11:45.449Z,7.77
2022-10-16T19:14:14.583Z,10.03
2022-10-16T19:16:43.163Z,6.53
2022-10-16T19:19:18.361Z,11.93
2022-10-16T19:21:47.921Z,9.50
2022-10-16T19:24:16.242Z,7.40
2022-10-16T19:26:43.722Z,6.23
2022-10-16T19:29:12.028Z,7.43
2022-10-16T19:31:40.309Z,6.90
2022-10-16T19:34:08.155Z,12.60
2022-10-16T19:36:37.942Z,9.70
2022-10-16T19:39:10.226Z,9.27
2022-10-16T19:41:38.194Z,10.17
2022-10-16T19:44:08.579Z,9.30
2022-10-16T19:46:37.233Z,11.83
2022-10-16T19:49:08.558Z,6.30
2022-10-16T19:51:36.379Z,9.13
2022-10-16T19:54:07.702Z,11.87
2022-10-16T19:56:35.950Z,39.73
2022-10-16T19:59:04.652Z,23.80
2022-10-16T20:01:33.200Z,8.17
2022-10-16T20:04:00.781Z,7.33
2022-10-16T20:06:28.370Z,8.47
2022-10-16T20:08:58.116Z,11.73
2022-10-16T20:11:31.590Z,9.20
2022-10-16T20:13:59.991Z,14.80
2022-10-16T20:16:29.541Z,13.73
2022-10-16T20:18:57.320Z,13.33
2022-10-16T20:21:29.041Z,12.93
2022-10-16T20:23:57.354Z,7.80
2022-10-16T20:26:26.175Z,11.30
2022-10-16T20:28:54.593Z,10.23
2022-10-16T20:31:26.433Z,17.83
2022-10-16T20:33:55.999Z,11.70
2022-10-16T20:36:24.790Z,13.83
2022-10-16T20:38:52.246Z,7.50
2022-10-16T20:41:23.247Z,11.33
2022-10-16T20:43:52.360Z,9.50
2022-10-16T20:46:26.061Z,15.37
2022-10-16T20:48:54.341Z,32.83
2022-10-16T20:51:24.492Z,26.00
2022-10-16T20:54:01.212Z,16.30
2022-10-16T20:56:31.603Z,11.03
2022-10-16T20:58:58.824Z,12.53
2022-10-16T21:01:28.758Z,14.10
2022-10-16T21:03:59.896Z,13.60
2022-10-16T21:06:27.376Z,13.30
2022-10-16T21:08:54.714Z,10.80
2022-10-16T21:11:27.574Z,20.97
2022-10-16T21:13:58.484Z,19.43
2022-10-16T21:16:26.696Z,16.77
2022-10-16T21:18:54.481Z,12.80
2022-10-16T21:21:32.440Z,14.37
2022-10-16T21:24:00.459Z,15.93
2022-10-16T21:26:28.634Z,13.97
2022-10-16T21:29:05.714Z,14.60
2022-10-16T21:31:33.963Z,13.10
2022-10-16T21:34:01.180Z,12.97
2022-10-16T21:36:35.234Z,13.47
2022-10-16T21:39:08.608Z,20.47
2022-10-16T21:41:36.971Z,18.97
2022-10-16T21:44:05.347Z,15.37
2022-10-16T21:46:35.982Z,13.07
2022-10-16T21:49:07.131Z,12.03
2022-10-16T21:51:38.212Z,12.20
2022-10-16T21:54:10.074Z,13.07
2022-10-16T21:56:37.155Z,12.70
2022-10-16T21:59:04.850Z,11.63
2022-10-16T22:01:32.306Z,13.63
2022-10-16T22:03:59.905Z,16.70
2022-10-16T22:06:28.487Z,17.33
2022-10-16T22:09:01.631Z,17.63
2022-10-16T22:11:38.216Z,11.47
2022-10-16T22:14:11.699Z,15.97
2022-10-16T22:16:39.403Z,20.07
2022-10-16T22:19:09.788Z,14.80
2022-10-16T22:21:40.343Z,14.60
2022-10-16T22:24:08.681Z,14.47
2022-10-16T22:26:36.799Z,17.77
2022-10-16T22:29:05.034Z,17.43
2022-10-16T22:31:32.932Z,8.20
2022-10-16T22:34:03.696Z,10.50
2022-10-16T22:36:31.345Z,9.30
2022-10-16T22:38:59.285Z,8.13
2022-10-16T22:41:26.534Z,13.30
2022-10-16T22:43:54.052Z,10.73
2022-10-16T22:46:30.795Z,9.50
2022-10-16T22:48:58.225Z,14.40
2022-10-16T22:51:27.139Z,17.33
2022-10-16T22:53:54.555Z,12.20
2022-10-16T22:56:22.572Z,13.40
2022-10-16T22:58:50.205Z,17.23
2022-10-16T23:01:31.422Z,14.93
2022-10-16T23:04:01.222Z,10.33
2022-10-16T23:06:28.493Z,9.60
2022-10-16T23:09:00.602Z,11.00
2022-10-16T23:11:29.623Z,15.40
2022-10-16T23:13:56.975Z,11.00
2022-10-16T23:16:25.231Z,12.10
2022-10-16T23:18:52.818Z,12.03
2022-10-16T23:21:25.275Z,12.03
2022-10-16T23:23:53.398Z,9.87
2022-10-16T23:26:24.632Z,13.40
2022-10-16T23:28:52.057Z,7.70
2022-10-16T23:31:19.910Z,7.37
2022-10-16T23:33:47.004Z,10.13
2022-10-16T23:36:18.201Z,11.40
2022-10-16T23:38:45.774Z,9.30
2022-10-16T23:41:14.622Z,10.30
2022-10-16T23:43:41.611Z,10.83
2022-10-16T23:46:13.505Z,12.07
2022-10-16T23:48:41.429Z,11.37
2022-10-16T23:51:09.671Z,20.90
2022-10-16T23:53:36.884Z,7.90
2022-10-16T23:56:04.575Z,6.93
2022-10-16T23:58:31.661Z,6.87
